createdAt,value
2018-05-15T00:00:55.059Z,10.80
2018-05-15T00:02:03.127Z,10.83
2018-05-15T00:03:11.186Z,10.77
2018-05-15T00:04:19.246Z,10.76
2018-05-15T00:05:27.319Z,10.76
2018-05-15T00:06:35.385Z,10.77
2018-05-15T00:07:43.440Z,10.82
2018-05-15T00:08:51.484Z,10.86
2018-05-15T00:09:59.583Z,10.80
2018-05-15T00:11:07.636Z,10.77
2018-05-15T00:12:15.704Z,10.82
2018-05-15T00:13:23.785Z,10.77
2018-05-15T00:14:31.805Z,10.76
2018-05-15T00:15:39.934Z,10.75
2018-05-15T00:16:47.950Z,10.76
2018-05-15T00:17:56.039Z,10.71
2018-05-15T00:19:04.101Z,10.79
2018-05-15T00:20:12.138Z,10.82
2018-05-15T00:21:20.231Z,10.75
2018-05-15T00:22:28.286Z,10.79
2018-05-15T00:23:36.355Z,10.75
2018-05-15T00:24:44.427Z,10.79
2018-05-15T00:25:52.478Z,10.80
2018-05-15T00:27:00.545Z,10.75
2018-05-15T00:28:08.617Z,10.75
2018-05-15T00:29:16.673Z,10.68
2018-05-15T00:30:24.750Z,10.75
2018-05-15T00:31:32.806Z,10.69
2018-05-15T00:32:40.875Z,10.77
2018-05-15T00:33:48.935Z,10.75
2018-05-15T00:34:57.005Z,10.71
2018-05-15T00:36:05.081Z,10.72
2018-05-15T00:37:13.127Z,10.72
2018-05-15T00:38:21.231Z,10.75
2018-05-15T00:39:29.265Z,10.75
2018-05-15T00:40:37.319Z,10.79
2018-05-15T00:41:45.395Z,10.72
2018-05-15T00:42:53.448Z,10.65
2018-05-15T00:44:01.500Z,10.65
2018-05-15T00:45:09.576Z,10.76
2018-05-15T00:46:17.666Z,10.68
2018-05-15T00:47:25.729Z,10.68
2018-05-15T00:48:33.771Z,10.76
2018-05-15T00:49:41.842Z,10.64
2018-05-15T00:50:49.920Z,10.71
2018-05-15T00:51:57.968Z,10.71
2018-05-15T00:53:06.042Z,10.72
2018-05-15T00:54:14.103Z,10.71
2018-05-15T00:55:22.159Z,10.65
2018-05-15T00:56:30.867Z,10.67
2018-05-15T00:57:38.653Z,10.65
2018-05-15T00:58:46.693Z,10.62
2018-05-15T00:59:54.782Z,10.72
2018-05-15T01:01:03.083Z,10.61
2018-05-15T01:02:11.083Z,10.69
2018-05-15T01:03:18.995Z,10.67
2018-05-15T01:04:26.804Z,10.68
2018-05-15T01:05:35.175Z,10.79
2018-05-15T01:06:43.441Z,10.59
2018-05-15T01:07:51.466Z,10.72
2018-05-15T01:09:00.606Z,10.61
2018-05-15T01:10:08.381Z,10.68
2018-05-15T01:11:15.632Z,10.64
2018-05-15T01:12:23.739Z,10.65
2018-05-15T01:13:31.865Z,10.68
2018-05-15T01:14:39.250Z,10.72
2018-05-15T01:15:47.314Z,10.68
2018-05-15T01:16:55.369Z,10.71
2018-05-15T01:18:03.443Z,10.69
2018-05-15T01:19:11.485Z,10.64
2018-05-15T01:20:19.567Z,10.68
2018-05-15T01:21:27.623Z,10.69
2018-05-15T01:22:35.720Z,10.61
2018-05-15T01:23:43.761Z,10.61
2018-05-15T01:24:51.804Z,10.68
2018-05-15T01:25:59.887Z,10.67
2018-05-15T01:27:07.962Z,10.67
2018-05-15T01:28:16.012Z,10.67
2018-05-15T01:29:24.071Z,10.67
2018-05-15T01:30:32.132Z,10.65
2018-05-15T01:31:40.239Z,10.64
2018-05-15T01:32:48.272Z,10.67
2018-05-15T01:33:56.335Z,10.67
2018-05-15T01:35:04.383Z,10.67
2018-05-15T01:36:12.447Z,10.65
2018-05-15T01:37:20.526Z,10.67
2018-05-15T01:38:28.582Z,10.72
2018-05-15T01:39:36.644Z,10.62
2018-05-15T01:40:44.717Z,10.71
2018-05-15T01:41:52.772Z,10.68
2018-05-15T01:43:00.825Z,10.68
2018-05-15T01:44:08.889Z,10.76
2018-05-15T01:45:16.949Z,10.72
2018-05-15T01:46:25.032Z,10.62
2018-05-15T01:47:33.093Z,10.65
2018-05-15T01:48:41.173Z,10.69
2018-05-15T01:49:49.233Z,10.62
2018-05-15T01:50:57.284Z,10.65
2018-05-15T01:52:05.360Z,10.71
2018-05-15T01:53:13.426Z,10.69
2018-05-15T01:54:21.468Z,10.80
2018-05-15T01:55:29.549Z,10.72
2018-05-15T01:56:37.623Z,10.71
2018-05-15T01:57:45.678Z,10.79
2018-05-15T01:58:53.750Z,10.86
2018-05-15T02:00:01.790Z,10.83
2018-05-15T02:01:09.866Z,10.86
2018-05-15T02:02:17.942Z,10.76
2018-05-15T02:03:26.031Z,10.82
2018-05-15T02:04:34.056Z,10.82
2018-05-15T02:05:42.107Z,10.82
2018-05-15T02:06:50.184Z,10.80
2018-05-15T02:07:58.262Z,10.71
2018-05-15T02:09:06.340Z,10.86
2018-05-15T02:10:14.403Z,10.75
2018-05-15T02:11:22.456Z,10.80
2018-05-15T02:12:30.530Z,10.77
2018-05-15T02:13:38.585Z,10.82
2018-05-15T02:14:46.661Z,10.80
2018-05-15T02:15:54.717Z,10.86
2018-05-15T02:17:02.839Z,10.79
2018-05-15T02:18:10.835Z,10.89
2018-05-15T02:19:18.913Z,10.84
2018-05-15T02:20:26.967Z,10.82
2018-05-15T02:21:35.040Z,10.86
2018-05-15T02:22:43.083Z,10.84
2018-05-15T02:23:51.166Z,10.79
2018-05-15T02:24:59.238Z,10.86
2018-05-15T02:26:07.309Z,10.80
2018-05-15T02:27:15.367Z,10.86
2018-05-15T02:28:23.415Z,10.79
2018-05-15T02:29:31.476Z,10.79
2018-05-15T02:30:39.555Z,10.80
2018-05-15T02:31:47.630Z,10.82
2018-05-15T02:32:55.721Z,10.76
2018-05-15T02:34:03.774Z,10.71
2018-05-15T02:35:11.797Z,10.64
2018-05-15T02:36:19.881Z,10.71
2018-05-15T02:37:27.962Z,10.69
2018-05-15T02:38:36.013Z,10.69
2018-05-15T02:39:44.088Z,10.71
2018-05-15T02:40:52.134Z,10.68
2018-05-15T02:42:00.207Z,10.65
2018-05-15T02:43:08.283Z,10.75
2018-05-15T02:44:16.346Z,10.65
2018-05-15T02:45:24.412Z,10.62
2018-05-15T02:46:32.470Z,10.71
2018-05-15T02:47:40.529Z,10.71
2018-05-15T02:48:48.597Z,10.71
2018-05-15T02:49:56.666Z,10.76
2018-05-15T02:51:04.725Z,10.76
2018-05-15T02:52:12.805Z,10.72
2018-05-15T02:53:20.864Z,10.72
2018-05-15T02:54:28.933Z,10.79
2018-05-15T02:55:36.997Z,10.72
2018-05-15T02:56:45.061Z,10.68
2018-05-15T02:57:53.130Z,10.64
2018-05-15T02:59:01.187Z,10.77
2018-05-15T03:00:09.266Z,10.77
2018-05-15T03:01:17.435Z,10.79
2018-05-15T03:02:25.389Z,10.75
2018-05-15T03:03:33.468Z,10.72
2018-05-15T03:04:41.498Z,10.72
2018-05-15T03:05:49.570Z,10.71
2018-05-15T03:06:57.624Z,10.62
2018-05-15T03:08:05.708Z,10.72
2018-05-15T03:09:13.782Z,10.61
2018-05-15T03:10:21.811Z,10.64
2018-05-15T03:11:29.915Z,10.77
2018-05-15T03:12:37.987Z,10.65
2018-05-15T03:13:46.060Z,10.67
2018-05-15T03:14:54.113Z,10.64
2018-05-15T03:16:02.140Z,10.65
2018-05-15T03:17:10.223Z,10.68
2018-05-15T03:18:18.337Z,10.75
2018-05-15T03:19:26.370Z,10.67
2018-05-15T03:20:34.430Z,10.59
2018-05-15T03:21:42.506Z,10.77
2018-05-15T03:22:50.560Z,10.71
2018-05-15T03:23:58.663Z,10.64
2018-05-15T03:25:06.685Z,10.69
2018-05-15T03:26:14.757Z,10.61
2018-05-15T03:27:22.814Z,10.72
2018-05-15T03:28:30.873Z,10.67
2018-05-15T03:29:38.954Z,10.65
2018-05-15T03:30:47.021Z,10.65
2018-05-15T03:31:55.090Z,10.61
2018-05-15T03:33:03.132Z,10.58
2018-05-15T03:34:11.217Z,10.51
2018-05-15T03:35:19.283Z,10.55
2018-05-15T03:36:27.344Z,10.49
2018-05-15T03:37:35.409Z,10.58
2018-05-15T03:38:43.466Z,10.53
2018-05-15T03:39:51.508Z,10.53
2018-05-15T03:40:59.599Z,10.57
2018-05-15T03:42:07.666Z,10.59
2018-05-15T03:43:15.726Z,10.48
2018-05-15T03:44:23.799Z,10.45
2018-05-15T03:45:31.829Z,10.46
2018-05-15T03:46:39.928Z,10.38
2018-05-15T03:47:47.996Z,10.42
2018-05-15T03:48:56.046Z,10.38
2018-05-15T03:50:04.126Z,10.31
2018-05-15T03:51:12.196Z,10.36
2018-05-15T03:52:20.267Z,10.34
2018-05-15T03:53:28.322Z,10.41
2018-05-15T03:54:36.365Z,10.41
2018-05-15T03:55:44.449Z,10.45
2018-05-15T03:56:52.523Z,10.36
2018-05-15T03:58:00.581Z,10.42
2018-05-15T03:59:08.649Z,10.41
2018-05-15T04:00:16.713Z,10.46
2018-05-15T04:01:24.763Z,10.38
2018-05-15T04:02:32.836Z,10.39
2018-05-15T04:03:40.907Z,10.46
2018-05-15T04:04:48.971Z,10.51
2018-05-15T04:05:57.039Z,10.48
2018-05-15T04:07:05.160Z,10.38
2018-05-15T04:08:13.157Z,10.48
2018-05-15T04:09:21.213Z,10.43
2018-05-15T04:10:29.287Z,10.38
2018-05-15T04:11:37.352Z,10.34
2018-05-15T04:12:45.412Z,10.39
2018-05-15T04:13:53.490Z,10.31
2018-05-15T04:15:01.524Z,10.33
2018-05-15T04:16:09.617Z,10.42
2018-05-15T04:17:17.677Z,10.34
2018-05-15T04:18:25.751Z,10.41
2018-05-15T04:19:33.793Z,10.25
2018-05-15T04:20:41.849Z,10.41
2018-05-15T04:21:49.931Z,10.39
2018-05-15T04:22:57.997Z,10.39
2018-05-15T04:24:06.066Z,10.39
2018-05-15T04:25:14.129Z,10.36
2018-05-15T04:26:22.160Z,10.43
2018-05-15T04:27:30.254Z,10.36
2018-05-15T04:28:38.315Z,10.39
2018-05-15T04:29:46.400Z,10.38
2018-05-15T04:30:54.455Z,10.45
2018-05-15T04:32:02.507Z,10.46
2018-05-15T04:33:10.625Z,10.38
2018-05-15T04:34:19.919Z,10.45
2018-05-15T04:35:26.741Z,10.38
2018-05-15T04:36:34.804Z,10.46
2018-05-15T04:37:42.836Z,10.41
2018-05-15T04:38:51.136Z,10.49
2018-05-15T04:39:58.962Z,10.51
2018-05-15T04:41:07.029Z,10.53
2018-05-15T04:42:15.092Z,10.53
2018-05-15T04:43:23.178Z,10.59
2018-05-15T04:44:31.244Z,10.68
2018-05-15T04:45:39.282Z,10.69
2018-05-15T04:46:47.346Z,10.65
2018-05-15T04:47:55.409Z,10.75
2018-05-15T04:49:03.494Z,10.65
2018-05-15T04:50:11.704Z,10.68
2018-05-15T04:51:19.609Z,10.69
2018-05-15T04:52:27.669Z,10.71
2018-05-15T04:53:35.748Z,10.72
2018-05-15T04:54:43.828Z,10.65
2018-05-15T04:55:51.834Z,10.71
2018-05-15T04:56:59.922Z,10.68
2018-05-15T04:58:07.988Z,10.69
2018-05-15T04:59:16.395Z,10.67
2018-05-15T05:00:24.119Z,10.67
2018-05-15T05:01:32.170Z,10.69
2018-05-15T05:02:40.234Z,10.68
2018-05-15T05:03:48.322Z,10.69
2018-05-15T05:04:56.387Z,10.77
2018-05-15T05:06:04.475Z,10.80
2018-05-15T05:07:12.500Z,10.80
2018-05-15T05:08:20.576Z,10.82
2018-05-15T05:09:28.636Z,10.83
2018-05-15T05:10:36.700Z,10.84
2018-05-15T05:11:44.790Z,11.02
2018-05-15T05:12:52.830Z,11.02
2018-05-15T05:14:00.896Z,10.98
2018-05-15T05:15:09.407Z,11.10
2018-05-15T05:16:17.025Z,11.16
2018-05-15T05:17:25.084Z,11.16
2018-05-15T05:18:33.151Z,11.30
2018-05-15T05:19:41.211Z,11.33
2018-05-15T05:20:49.917Z,11.35
2018-05-15T05:21:57.357Z,11.40
2018-05-15T05:23:05.412Z,11.41
2018-05-15T05:24:13.747Z,11.55
2018-05-15T05:25:21.515Z,11.51
2018-05-15T05:26:29.606Z,11.53
2018-05-15T05:27:37.680Z,11.44
2018-05-15T05:28:45.732Z,11.59
2018-05-15T05:29:53.787Z,11.48
2018-05-15T05:31:01.834Z,11.55
2018-05-15T05:32:09.921Z,11.56
2018-05-15T05:33:18.068Z,11.65
2018-05-15T05:34:26.058Z,11.67
2018-05-15T05:35:34.133Z,11.73
2018-05-15T05:36:42.158Z,11.74
2018-05-15T05:37:50.258Z,11.68
2018-05-15T05:38:58.314Z,11.65
2018-05-15T05:40:06.450Z,11.60
2018-05-15T05:41:14.462Z,11.56
2018-05-15T05:42:22.516Z,11.59
2018-05-15T05:43:30.591Z,11.56
2018-05-15T05:44:38.661Z,11.55
2018-05-15T05:45:46.724Z,11.62
2018-05-15T05:46:54.772Z,11.63
2018-05-15T05:48:02.849Z,11.68
2018-05-15T05:49:10.918Z,11.67
2018-05-15T05:50:18.985Z,11.80
2018-05-15T05:51:27.045Z,11.83
2018-05-15T05:52:35.125Z,11.95
2018-05-15T05:53:43.184Z,12.07
2018-05-15T05:54:51.249Z,12.15
2018-05-15T05:55:59.325Z,12.26
2018-05-15T05:57:07.394Z,12.37
2018-05-15T05:58:15.455Z,12.48
2018-05-15T05:59:23.511Z,12.50
2018-05-15T06:00:31.575Z,12.57
2018-05-15T06:01:39.666Z,12.55
2018-05-15T06:02:47.723Z,12.61
2018-05-15T06:03:55.797Z,12.55
2018-05-15T06:05:03.868Z,12.55
2018-05-15T06:06:11.914Z,12.57
2018-05-15T06:07:19.999Z,12.44
2018-05-15T06:08:28.066Z,12.50
2018-05-15T06:09:36.126Z,12.57
2018-05-15T06:10:44.196Z,12.58
2018-05-15T06:11:52.253Z,12.76
2018-05-15T06:13:00.338Z,12.68
2018-05-15T06:14:08.398Z,12.58
2018-05-15T06:15:16.478Z,12.68
2018-05-15T06:16:24.523Z,12.63
2018-05-15T06:17:32.608Z,12.72
2018-05-15T06:18:40.661Z,12.90
2018-05-15T06:19:48.737Z,13.02
2018-05-15T06:20:57.062Z,13.11
2018-05-15T06:22:05.459Z,13.20
2018-05-15T06:23:13.577Z,13.28
2018-05-15T06:24:21.514Z,13.49
2018-05-15T06:25:29.699Z,13.47
2018-05-15T06:26:37.151Z,13.52
2018-05-15T06:27:45.210Z,13.60
2018-05-15T06:28:53.286Z,13.67
2018-05-15T06:30:01.415Z,13.62
2018-05-15T06:31:09.408Z,13.71
2018-05-15T06:32:17.543Z,13.70
2018-05-15T06:33:25.557Z,13.71
2018-05-15T06:34:33.662Z,13.67
2018-05-15T06:35:41.663Z,13.67
2018-05-15T06:36:49.756Z,13.75
2018-05-15T06:37:57.819Z,13.79
2018-05-15T06:39:05.895Z,13.79
2018-05-15T06:40:13.966Z,13.71
2018-05-15T06:41:22.000Z,13.79
2018-05-15T06:42:30.105Z,13.82
2018-05-15T06:43:38.152Z,13.73
2018-05-15T06:44:46.277Z,13.71
2018-05-15T06:45:54.311Z,13.80
2018-05-15T06:47:02.359Z,14.03
2018-05-15T06:48:10.449Z,14.03
2018-05-15T06:49:18.512Z,14.26
2018-05-15T06:50:26.578Z,14.41
2018-05-15T06:51:34.659Z,14.56
2018-05-15T06:52:42.709Z,14.66
2018-05-15T06:53:50.785Z,14.74
2018-05-15T06:54:58.849Z,14.99
2018-05-15T06:56:06.923Z,15.10
2018-05-15T06:57:14.980Z,15.15
2018-05-15T06:58:23.057Z,15.19
2018-05-15T06:59:31.136Z,15.41
2018-05-15T07:00:39.197Z,15.48
2018-05-15T07:01:47.363Z,15.45
2018-05-15T07:02:55.339Z,15.57
2018-05-15T07:04:03.418Z,15.62
2018-05-15T07:05:11.452Z,15.78
2018-05-15T07:06:19.553Z,15.85
2018-05-15T07:07:27.621Z,15.91
2018-05-15T07:08:35.690Z,15.83
2018-05-15T07:09:43.753Z,15.65
2018-05-15T07:10:51.822Z,15.66
2018-05-15T07:11:59.893Z,15.65
2018-05-15T07:13:07.966Z,15.52
2018-05-15T07:14:16.030Z,15.55
2018-05-15T07:15:24.102Z,15.62
2018-05-15T07:16:32.154Z,15.59
2018-05-15T07:17:40.263Z,15.48
2018-05-15T07:18:48.316Z,15.39
2018-05-15T07:19:56.382Z,15.27
2018-05-15T07:21:04.463Z,15.35
2018-05-15T07:22:12.536Z,15.10
2018-05-15T07:23:20.602Z,14.96
2018-05-15T07:24:28.670Z,14.97
2018-05-15T07:25:36.750Z,14.92
2018-05-15T07:26:45.433Z,14.70
2018-05-15T07:27:52.894Z,14.52
2018-05-15T07:29:00.951Z,14.37
2018-05-15T07:30:09.020Z,14.15
2018-05-15T07:31:17.086Z,14.05
2018-05-15T07:32:25.160Z,13.91
2018-05-15T07:33:33.248Z,13.95
2018-05-15T07:34:41.300Z,13.86
2018-05-15T07:35:49.371Z,13.87
2018-05-15T07:36:57.445Z,13.91
2018-05-15T07:38:05.508Z,13.87
2018-05-15T07:39:13.576Z,13.87
2018-05-15T07:40:21.682Z,13.82
2018-05-15T07:41:29.715Z,13.86
2018-05-15T07:42:37.791Z,13.89
2018-05-15T07:43:45.866Z,13.83
2018-05-15T07:44:53.926Z,13.91
2018-05-15T07:46:01.965Z,14.00
2018-05-15T07:47:10.067Z,14.11
2018-05-15T07:48:18.204Z,14.33
2018-05-15T07:49:26.209Z,14.48
2018-05-15T07:50:34.259Z,14.48
2018-05-15T07:51:42.335Z,14.45
2018-05-15T07:52:50.411Z,14.61
2018-05-15T07:53:58.475Z,14.59
2018-05-15T07:55:06.559Z,14.70
2018-05-15T07:56:14.620Z,14.94
2018-05-15T07:57:22.683Z,15.02
2018-05-15T07:58:30.756Z,15.19
2018-05-15T07:59:38.816Z,15.33
2018-05-15T08:00:46.893Z,15.30
2018-05-15T08:01:54.965Z,15.30
2018-05-15T08:03:03.039Z,15.14
2018-05-15T08:04:11.109Z,15.00
2018-05-15T08:05:19.163Z,14.97
2018-05-15T08:06:27.250Z,14.86
2018-05-15T08:07:35.310Z,14.67
2018-05-15T08:08:43.370Z,14.51
2018-05-15T08:09:51.430Z,14.56
2018-05-15T08:10:59.519Z,14.71
2018-05-15T08:12:07.585Z,14.85
2018-05-15T08:13:15.652Z,14.86
2018-05-15T08:14:23.720Z,14.78
2018-05-15T08:15:31.769Z,14.67
2018-05-15T08:16:39.872Z,14.59
2018-05-15T08:17:47.927Z,14.59
2018-05-15T08:18:56.003Z,14.58
2018-05-15T08:20:04.068Z,14.68
2018-05-15T08:21:12.122Z,14.61
2018-05-15T08:22:20.255Z,15.10
2018-05-15T08:23:28.278Z,15.37
2018-05-15T08:24:36.351Z,15.54
2018-05-15T08:25:44.420Z,15.63
2018-05-15T08:26:52.489Z,15.67
2018-05-15T08:28:00.546Z,15.55
2018-05-15T08:29:08.618Z,15.51
2018-05-15T08:30:16.693Z,15.23
2018-05-15T08:31:24.764Z,15.12
2018-05-15T08:32:32.831Z,15.04
2018-05-15T08:33:40.910Z,14.94
2018-05-15T08:34:48.970Z,14.99
2018-05-15T08:35:57.052Z,14.82
2018-05-15T08:37:05.128Z,14.79
2018-05-15T08:38:13.176Z,14.79
2018-05-15T08:39:21.236Z,14.51
2018-05-15T08:40:29.326Z,14.55
2018-05-15T08:41:37.389Z,14.43
2018-05-15T08:42:45.463Z,14.37
2018-05-15T08:43:53.526Z,14.36
2018-05-15T08:45:01.579Z,14.28
2018-05-15T08:46:09.672Z,14.26
2018-05-15T08:47:17.743Z,14.19
2018-05-15T08:48:25.794Z,14.11
2018-05-15T08:49:33.878Z,14.04
2018-05-15T08:50:41.907Z,13.97
2018-05-15T08:51:50.003Z,13.97
2018-05-15T08:52:58.078Z,13.97
2018-05-15T08:54:06.131Z,13.91
2018-05-15T08:55:14.205Z,13.83
2018-05-15T08:56:22.263Z,13.65
2018-05-15T08:57:30.389Z,13.57
2018-05-15T08:58:38.425Z,13.45
2018-05-15T08:59:46.488Z,13.31
2018-05-15T09:00:54.553Z,13.31
2018-05-15T09:02:02.637Z,13.23
2018-05-15T09:03:10.693Z,13.26
2018-05-15T09:04:18.765Z,13.19
2018-05-15T09:05:26.824Z,13.20
2018-05-15T09:06:34.889Z,13.08
2018-05-15T09:07:42.968Z,12.95
2018-05-15T09:08:51.042Z,12.99
2018-05-15T09:09:59.102Z,12.98
2018-05-15T09:11:07.170Z,13.01
2018-05-15T09:12:15.228Z,12.99
2018-05-15T09:13:23.307Z,13.02
2018-05-15T09:14:31.368Z,13.11
2018-05-15T09:15:39.452Z,13.21
2018-05-15T09:16:47.542Z,13.47
2018-05-15T09:17:55.582Z,13.61
2018-05-15T09:19:03.645Z,13.82
2018-05-15T09:20:11.689Z,13.87
2018-05-15T09:21:19.771Z,14.05
2018-05-15T09:22:27.849Z,14.08
2018-05-15T09:23:35.906Z,14.31
2018-05-15T09:24:43.977Z,14.43
2018-05-15T09:25:52.009Z,14.45
2018-05-15T09:27:00.113Z,14.40
2018-05-15T09:28:08.177Z,14.13
2018-05-15T09:29:16.303Z,14.04
2018-05-15T09:30:24.314Z,13.95
2018-05-15T09:31:32.375Z,13.78
2018-05-15T09:32:40.449Z,13.71
2018-05-15T09:33:48.513Z,13.65
2018-05-15T09:34:56.580Z,13.61
2018-05-15T09:36:04.655Z,13.58
2018-05-15T09:37:12.719Z,13.64
2018-05-15T09:38:20.802Z,13.79
2018-05-15T09:39:28.856Z,13.94
2018-05-15T09:40:36.926Z,14.05
2018-05-15T09:41:45.001Z,14.34
2018-05-15T09:42:53.074Z,14.48
2018-05-15T09:44:01.128Z,14.94
2018-05-15T09:45:09.204Z,15.18
2018-05-15T09:46:17.267Z,15.51
2018-05-15T09:47:25.333Z,15.54
2018-05-15T09:48:33.407Z,15.66
2018-05-15T09:49:41.464Z,15.55
2018-05-15T09:50:49.540Z,15.62
2018-05-15T09:51:57.615Z,15.66
2018-05-15T09:53:05.680Z,15.67
2018-05-15T09:54:13.755Z,15.78
2018-05-15T09:55:21.796Z,15.84
2018-05-15T09:56:29.892Z,15.99
2018-05-15T09:57:37.950Z,16.17
2018-05-15T09:58:46.044Z,16.17
2018-05-15T09:59:54.098Z,16.41
2018-05-15T10:01:02.138Z,16.28
2018-05-15T10:02:10.248Z,16.10
2018-05-15T10:03:18.298Z,15.85
2018-05-15T10:04:26.369Z,15.75
2018-05-15T10:05:34.447Z,15.63
2018-05-15T10:06:42.510Z,15.50
2018-05-15T10:07:50.661Z,15.52
2018-05-15T10:08:58.654Z,15.29
2018-05-15T10:10:06.719Z,15.43
2018-05-15T10:11:14.781Z,15.37
2018-05-15T10:12:22.864Z,15.66
2018-05-15T10:13:30.939Z,15.83
2018-05-15T10:14:38.992Z,16.13
2018-05-15T10:15:47.058Z,16.39
2018-05-15T10:16:55.146Z,16.74
2018-05-15T10:18:03.211Z,17.02
2018-05-15T10:19:11.263Z,17.13
2018-05-15T10:20:19.352Z,17.12
2018-05-15T10:21:27.427Z,16.97
2018-05-15T10:22:35.485Z,16.91
2018-05-15T10:23:43.554Z,16.97
2018-05-15T10:24:51.613Z,16.95
2018-05-15T10:25:59.710Z,16.99
2018-05-15T10:27:07.777Z,16.98
2018-05-15T10:28:15.840Z,17.12
2018-05-15T10:29:23.919Z,17.16
2018-05-15T10:30:31.964Z,17.47
2018-05-15T10:31:40.054Z,17.59
2018-05-15T10:32:48.126Z,17.72
2018-05-15T10:33:56.189Z,17.76
2018-05-15T10:35:04.270Z,17.95
2018-05-15T10:36:12.325Z,17.86
2018-05-15T10:37:20.428Z,17.76
2018-05-15T10:38:28.492Z,17.87
2018-05-15T10:39:36.559Z,18.00
2018-05-15T10:40:44.624Z,17.94
2018-05-15T10:41:52.700Z,18.09
2018-05-15T10:43:00.777Z,18.24
2018-05-15T10:44:08.846Z,18.18
2018-05-15T10:45:16.916Z,18.06
2018-05-15T10:46:24.992Z,18.09
2018-05-15T10:47:33.071Z,18.12
2018-05-15T10:48:41.152Z,18.03
2018-05-15T10:49:49.200Z,18.13
2018-05-15T10:50:57.283Z,18.08
2018-05-15T10:52:05.351Z,18.11
2018-05-15T10:53:13.422Z,18.16
2018-05-15T10:54:21.473Z,18.06
2018-05-15T10:55:29.599Z,18.11
2018-05-15T10:56:37.650Z,18.08
2018-05-15T10:57:45.731Z,18.08
2018-05-15T10:58:53.783Z,18.06
2018-05-15T11:00:01.847Z,17.98
2018-05-15T11:01:09.937Z,17.98
2018-05-15T11:02:17.998Z,18.03
2018-05-15T11:03:26.073Z,18.13
2018-05-15T11:04:34.153Z,18.16
2018-05-15T11:05:42.207Z,18.64
2018-05-15T11:06:50.291Z,19.01
2018-05-15T11:07:58.363Z,19.27
2018-05-15T11:09:06.448Z,19.29
2018-05-15T11:10:14.549Z,19.05
2018-05-15T11:11:22.593Z,18.81
2018-05-15T11:12:30.654Z,18.71
2018-05-15T11:13:38.734Z,18.76
2018-05-15T11:14:46.814Z,18.52
2018-05-15T11:15:54.886Z,18.52
2018-05-15T11:17:02.959Z,18.52
2018-05-15T11:18:11.021Z,18.67
2018-05-15T11:19:19.104Z,18.61
2018-05-15T11:20:27.176Z,18.43
2018-05-15T11:21:35.244Z,18.24
2018-05-15T11:22:43.317Z,18.06
2018-05-15T11:23:51.396Z,18.02
2018-05-15T11:24:59.472Z,18.11
2018-05-15T11:26:07.526Z,18.08
2018-05-15T11:27:15.610Z,18.18
2018-05-15T11:28:23.692Z,18.46
2018-05-15T11:29:31.733Z,18.74
2018-05-15T11:30:39.825Z,19.01
2018-05-15T11:31:47.892Z,19.05
2018-05-15T11:32:55.985Z,18.94
2018-05-15T11:34:04.038Z,18.97
2018-05-15T11:35:12.107Z,18.68
2018-05-15T11:36:20.184Z,18.51
2018-05-15T11:37:28.258Z,18.53
2018-05-15T11:38:36.334Z,18.37
2018-05-15T11:39:44.412Z,18.23
2018-05-15T11:40:52.467Z,17.98
2018-05-15T11:42:00.543Z,17.88
2018-05-15T11:43:08.620Z,17.72
2018-05-15T11:44:16.697Z,17.53
2018-05-15T11:45:24.762Z,17.35
2018-05-15T11:46:32.858Z,17.17
2018-05-15T11:47:41.064Z,17.02
2018-05-15T11:48:49.670Z,16.77
2018-05-15T11:49:57.618Z,16.77
2018-05-15T11:51:06.116Z,16.59
2018-05-15T11:52:14.099Z,16.37
2018-05-15T11:53:21.347Z,16.34
2018-05-15T11:54:29.336Z,16.31
2018-05-15T11:55:42.712Z,16.13
2018-05-15T11:56:45.489Z,16.12
2018-05-15T11:57:53.639Z,15.96
2018-05-15T11:59:01.611Z,15.88
2018-05-15T12:00:09.718Z,15.78
2018-05-15T12:01:17.787Z,15.70
2018-05-15T12:02:25.933Z,15.60
2018-05-15T12:03:33.924Z,15.43
2018-05-15T12:04:41.976Z,15.47
2018-05-15T12:05:50.061Z,15.36
2018-05-15T12:06:58.145Z,15.33
2018-05-15T12:08:06.270Z,15.32
2018-05-15T12:09:14.285Z,15.23
2018-05-15T12:10:22.350Z,15.17
2018-05-15T12:11:30.416Z,15.15
2018-05-15T12:12:38.482Z,15.14
2018-05-15T12:13:46.548Z,14.94
2018-05-15T12:14:54.688Z,14.89
2018-05-15T12:16:02.718Z,14.85
2018-05-15T12:17:10.768Z,14.66
2018-05-15T12:18:18.832Z,14.25
2018-05-15T12:19:26.910Z,13.71
2018-05-15T12:20:34.968Z,10.43
2018-05-15T12:21:43.033Z,9.92
2018-05-15T12:22:51.111Z,9.36
2018-05-15T12:23:59.162Z,9.18
2018-05-15T12:25:07.246Z,9.37
2018-05-15T12:26:26.109Z,9.80
2018-05-15T12:27:23.395Z,9.97
2018-05-15T12:28:31.423Z,10.30
2018-05-15T12:29:39.514Z,10.43
2018-05-15T12:30:47.588Z,10.69
2018-05-15T12:31:55.645Z,10.86
2018-05-15T12:33:03.709Z,10.98
2018-05-15T12:34:11.769Z,11.01
2018-05-15T12:35:19.856Z,11.18
2018-05-15T12:36:27.918Z,11.22
2018-05-15T12:37:35.975Z,11.38
2018-05-15T12:38:44.053Z,11.35
2018-05-15T12:39:52.090Z,11.27
2018-05-15T12:41:00.187Z,11.35
2018-05-15T12:42:08.409Z,11.26
2018-05-15T12:43:16.312Z,11.10
2018-05-15T12:44:25.803Z,11.05
2018-05-15T12:45:32.446Z,11.04
2018-05-15T12:46:40.553Z,10.98
2018-05-15T12:47:48.654Z,10.95
2018-05-15T12:48:56.642Z,11.07
2018-05-15T12:50:04.718Z,10.83
2018-05-15T12:51:12.807Z,10.77
2018-05-15T12:52:20.835Z,10.83
2018-05-15T12:53:28.906Z,10.64
2018-05-15T12:54:36.965Z,10.68
2018-05-15T17:10:50.933Z,8.28
2018-05-15T17:11:58.994Z,8.27
2018-05-15T17:13:07.146Z,8.14
2018-05-15T17:14:15.103Z,7.95
2018-05-15T17:15:23.174Z,7.99
2018-05-15T17:16:31.209Z,7.98
2018-05-15T17:17:39.294Z,7.87
2018-05-15T17:18:47.354Z,7.85
2018-05-15T17:19:55.406Z,7.85
2018-05-15T17:21:03.495Z,7.95
2018-05-15T17:22:11.543Z,7.95
2018-05-15T17:23:19.619Z,8.06
2018-05-15T17:24:27.683Z,7.90
2018-05-15T17:25:35.754Z,7.85
2018-05-15T17:26:43.803Z,7.91
2018-05-15T17:27:51.857Z,7.88
2018-05-15T17:28:59.923Z,7.95
2018-05-15T17:30:08.003Z,8.14
2018-05-15T17:31:16.110Z,8.03
2018-05-15T17:32:24.110Z,8.01
2018-05-15T17:33:32.178Z,8.13
2018-05-15T17:34:40.241Z,8.13
2018-05-15T17:35:48.301Z,8.16
2018-05-15T17:36:56.378Z,8.13
2018-05-15T17:38:04.463Z,8.14
2018-05-15T17:39:12.557Z,8.14
2018-05-15T17:40:20.533Z,8.13
2018-05-15T17:41:28.616Z,8.13
2018-05-15T17:42:36.673Z,8.28
2018-05-15T17:43:44.766Z,8.36
2018-05-15T17:44:52.805Z,8.49
2018-05-15T17:46:00.838Z,8.45
2018-05-15T17:47:08.920Z,8.54
2018-05-15T17:48:16.970Z,8.61
2018-05-15T17:49:25.050Z,8.60
2018-05-15T17:50:33.116Z,8.69
2018-05-15T17:51:41.152Z,8.72
2018-05-15T17:52:49.312Z,8.72
2018-05-15T17:53:57.292Z,8.66
2018-05-15T17:55:05.351Z,8.77
2018-05-15T17:56:13.420Z,8.77
2018-05-15T17:57:21.478Z,8.81
2018-05-15T17:58:29.547Z,8.82
2018-05-15T17:59:37.607Z,8.78
2018-05-15T18:00:45.660Z,8.74
2018-05-15T18:01:53.735Z,8.77
2018-05-15T18:03:01.789Z,8.74
2018-05-15T18:04:09.857Z,8.72
2018-05-15T18:05:17.908Z,-40.00
2018-05-15T18:06:25.977Z,-40.00
2018-05-15T18:07:34.054Z,-40.00
2018-05-15T18:08:42.119Z,-40.00
2018-05-15T18:09:50.165Z,-40.00
2018-05-15T18:10:58.226Z,-40.00
2018-05-15T18:12:06.269Z,-40.00
2018-05-15T18:13:14.343Z,-40.00
2018-05-15T18:14:22.434Z,-40.00
2018-05-15T18:15:30.471Z,-40.00
2018-05-15T18:16:38.538Z,-40.00
2018-05-15T18:17:46.622Z,-40.00
2018-05-15T18:18:54.652Z,-40.00
2018-05-15T18:20:02.705Z,-40.00
2018-05-15T18:21:10.870Z,-40.00
2018-05-15T18:22:18.841Z,-40.00
2018-05-15T18:23:26.911Z,-40.00
2018-05-15T18:24:34.964Z,-40.00
2018-05-15T18:25:43.023Z,-40.00
2018-05-15T18:26:51.065Z,-40.00
2018-05-15T18:27:59.144Z,-40.00
2018-05-15T18:29:07.215Z,-40.00
2018-05-15T18:30:15.276Z,-40.00
2018-05-15T18:31:23.331Z,-40.00
2018-05-15T18:32:31.374Z,-40.00
2018-05-15T18:33:39.466Z,-40.00
2018-05-15T18:34:47.516Z,-40.00
2018-05-15T18:35:55.573Z,-40.00
2018-05-15T18:37:03.651Z,-40.00
2018-05-15T18:38:11.714Z,-40.00
2018-05-15T18:39:19.762Z,-40.00
2018-05-15T18:40:27.857Z,-40.00
2018-05-15T18:41:35.890Z,-40.00
2018-05-15T18:42:43.948Z,-40.00
2018-05-15T18:43:52.024Z,-40.00
2018-05-15T18:45:00.071Z,-40.00
2018-05-15T18:46:08.136Z,-40.00
2018-05-15T18:47:16.194Z,-40.00
2018-05-15T18:48:24.254Z,-40.00
2018-05-15T18:49:32.325Z,-40.00
2018-05-15T18:50:40.385Z,-40.00
2018-05-15T18:51:48.438Z,-40.00
2018-05-15T18:52:56.500Z,-40.00